createdAt,value
2023-01-28T00:00:20.899Z,100528.44
2023-01-28T00:03:23.646Z,100536.09
2023-01-28T00:06:26.021Z,100532.72
2023-01-28T00:09:28.669Z,100541.28
2023-01-28T00:12:31.430Z,100536.19
2023-01-28T00:15:34.127Z,100539.59
2023-01-28T00:18:37.123Z,100537.84
2023-01-28T00:21:39.719Z,100544.72
2023-01-28T00:24:42.183Z,100548.16
2023-01-28T00:27:45.275Z,100547.31
2023-01-28T00:30:47.821Z,100548.19
2023-01-28T00:33:51.008Z,100549.84
2023-01-28T00:37:02.336Z,100555.87
2023-01-28T00:40:07.125Z,100549.03
2023-01-28T00:43:10.716Z,100549.06
2023-01-28T00:46:16.333Z,100546.47
2023-01-28T00:49:19.538Z,100554.19
2023-01-28T00:52:22.093Z,100557.59
2023-01-28T00:55:24.522Z,100555.94
2023-01-28T00:58:27.210Z,100559.34
2023-01-28T01:01:29.604Z,100568.72
2023-01-28T01:04:35.433Z,100559.31
2023-01-28T01:07:44.439Z,100563.59
2023-01-28T01:10:47.201Z,100568.69
2023-01-28T01:13:56.982Z,100565.28
2023-01-28T01:16:59.955Z,100555.97
2023-01-28T01:20:05.847Z,100562.81
2023-01-28T01:23:09.674Z,100567.94
2023-01-28T01:26:12.657Z,100567.88
2023-01-28T01:29:15.324Z,100566.13
2023-01-28T01:32:18.618Z,100567.84
2023-01-28T01:35:21.220Z,100563.53
2023-01-28T01:38:23.663Z,100564.44
2023-01-28T01:41:30.980Z,100566.09
2023-01-28T01:44:52.236Z,100564.41
2023-01-28T01:47:58.100Z,100566.97
2023-01-28T01:51:10.903Z,100563.53
2023-01-28T01:54:14.474Z,100567.78
2023-01-28T01:57:22.675Z,100575.41
2023-01-28T02:00:25.512Z,100576.31
2023-01-28T02:03:35.110Z,100571.16
2023-01-28T02:06:38.127Z,100573.69
2023-01-28T02:09:41.633Z,100568.63
2023-01-28T02:12:47.530Z,100566.94
2023-01-28T02:15:50.925Z,100573.69
2023-01-28T02:18:53.795Z,100572.87
2023-01-28T02:21:56.112Z,100566.00
2023-01-28T02:25:04.618Z,100567.62
2023-01-28T02:28:13.012Z,100573.66
2023-01-28T02:31:15.922Z,100566.88
2023-01-28T02:34:36.932Z,100560.06
2023-01-28T02:38:15.195Z,100560.03
2023-01-28T02:41:26.703Z,100564.31
2023-01-28T02:44:29.806Z,100560.88
2023-01-28T02:47:50.793Z,100554.00
2023-01-28T02:51:07.658Z,100562.56
2023-01-28T02:54:17.274Z,100563.38
2023-01-28T02:57:38.709Z,100565.87
2023-01-28T03:01:02.018Z,100564.19
2023-01-28T03:04:08.212Z,100555.69
2023-01-28T03:07:12.653Z,100557.41
2023-01-28T03:10:21.856Z,100559.94
2023-01-28T03:13:42.641Z,100561.66
2023-01-28T03:17:05.027Z,100566.75
2023-01-28T03:20:27.783Z,100564.12
2023-01-28T03:24:09.803Z,100563.25
2023-01-28T03:27:35.045Z,100555.59
2023-01-28T03:31:26.582Z,100553.06
2023-01-28T03:34:49.181Z,100558.16
2023-01-28T03:37:52.015Z,100561.56
2023-01-28T03:40:57.196Z,100563.25
2023-01-28T03:44:18.529Z,100567.53
2023-01-28T03:47:23.197Z,100572.63
2023-01-28T03:50:26.768Z,100573.41
2023-01-28T03:53:29.622Z,100575.94
2023-01-28T03:56:32.611Z,100575.09
2023-01-28T03:59:35.351Z,100573.41
2023-01-28T04:02:40.268Z,100567.47
2023-01-28T04:05:47.696Z,100573.44
2023-01-28T04:08:53.541Z,100568.31
2023-01-28T04:11:56.425Z,100572.63
2023-01-28T04:14:59.087Z,100568.31
2023-01-28T04:18:01.749Z,100571.81
2023-01-28T04:21:04.490Z,100580.38
2023-01-28T04:24:07.738Z,100570.97
2023-01-28T04:27:10.289Z,100581.22
2023-01-28T04:30:13.153Z,100580.38
2023-01-28T04:33:15.888Z,100584.66
2023-01-28T04:36:18.703Z,100589.75
2023-01-28T04:39:21.159Z,100589.78
2023-01-28T04:42:24.160Z,100586.34
2023-01-28T04:45:27.688Z,100589.78
2023-01-28T04:48:32.196Z,100586.37
2023-01-28T04:51:34.733Z,100595.75
2023-01-28T04:54:38.067Z,100594.03
2023-01-28T04:57:40.517Z,100593.19
2023-01-28T05:00:43.652Z,100601.72
2023-01-28T05:03:45.949Z,100601.72
2023-01-28T05:06:50.640Z,100600.03
2023-01-28T05:09:53.113Z,100602.50
2023-01-28T05:12:56.460Z,100605.94
2023-01-28T05:15:58.817Z,100606.81
2023-01-28T05:19:02.028Z,100612.81
2023-01-28T05:22:06.387Z,100609.47
2023-01-28T05:25:10.715Z,100616.25
2023-01-28T05:28:13.168Z,100617.13
2023-01-28T05:31:17.160Z,100617.09
2023-01-28T05:34:19.894Z,100626.44
2023-01-28T05:37:22.552Z,100616.22
2023-01-28T05:40:26.489Z,100629.03
2023-01-28T05:43:29.265Z,100620.44
2023-01-28T05:46:34.642Z,100628.13
2023-01-28T05:49:38.179Z,100634.06
2023-01-28T05:52:41.852Z,100634.13
2023-01-28T05:55:47.951Z,100634.94
2023-01-28T05:58:50.513Z,100632.41
2023-01-28T06:01:53.994Z,100637.53
2023-01-28T06:04:56.894Z,100643.53
2023-01-28T06:07:59.280Z,100641.84
2023-01-28T06:11:02.444Z,100643.50
2023-01-28T06:14:08.316Z,100647.75
2023-01-28T06:17:12.239Z,100647.75
2023-01-28T06:20:17.402Z,100648.53
2023-01-28T06:23:22.185Z,100663.03
2023-01-28T06:26:24.839Z,100663.00
2023-01-28T06:29:27.721Z,100660.47
2023-01-28T06:32:30.257Z,100666.44
2023-01-28T06:35:32.924Z,100667.28
2023-01-28T06:38:35.388Z,100669.78
2023-01-28T06:41:38.475Z,100675.81
2023-01-28T06:44:40.932Z,100681.78
2023-01-28T06:47:43.532Z,100683.53
2023-01-28T06:50:48.981Z,100686.16
2023-01-28T06:53:51.621Z,100692.94
2023-01-28T06:56:53.988Z,100697.16
2023-01-28T06:59:56.633Z,100696.25
2023-01-28T07:02:59.467Z,100707.44
2023-01-28T07:06:02.359Z,100706.56
2023-01-28T07:09:04.835Z,100717.72
2023-01-28T07:12:07.682Z,100709.19
2023-01-28T07:15:11.131Z,100720.31
2023-01-28T07:18:16.370Z,100720.41
2023-01-28T07:21:19.138Z,100723.09
2023-01-28T07:24:21.802Z,100733.34
2023-01-28T07:27:24.152Z,100734.19
2023-01-28T07:30:27.377Z,100735.91
2023-01-28T07:33:30.314Z,100739.41
2023-01-28T07:36:33.289Z,100737.72
2023-01-28T07:39:35.667Z,100736.91
2023-01-28T07:42:38.382Z,100741.22
2023-01-28T07:45:41.039Z,100742.03
2023-01-28T07:48:44.032Z,100744.59
2023-01-28T07:51:47.165Z,100742.91
2023-01-28T07:54:49.810Z,100742.16
2023-01-28T07:57:53.551Z,100748.97
2023-01-28T08:01:01.807Z,100750.66
2023-01-28T08:04:04.675Z,100751.53
2023-01-28T08:07:08.216Z,100750.69
2023-01-28T08:10:12.934Z,100752.44
2023-01-28T08:13:16.860Z,100752.44
2023-01-28T08:16:19.595Z,100761.84
2023-01-28T08:19:21.964Z,100764.53
2023-01-28T08:22:28.130Z,100763.63
2023-01-28T08:25:30.419Z,100763.63
2023-01-28T08:28:33.136Z,100763.56
2023-01-28T08:31:35.507Z,100765.38
2023-01-28T08:34:38.143Z,100771.44
2023-01-28T08:37:40.391Z,100768.09
2023-01-28T08:40:43.000Z,100769.91
2023-01-28T08:43:45.338Z,100770.75
2023-01-28T08:46:50.120Z,100770.78
2023-01-28T08:49:53.073Z,100782.66
2023-01-28T08:52:57.106Z,100783.56
2023-01-28T08:55:59.405Z,100783.66
2023-01-28T08:59:02.020Z,100784.59
2023-01-28T09:02:04.332Z,100790.63
2023-01-28T09:05:07.303Z,100788.94
2023-01-28T09:08:11.475Z,100789.75
2023-01-28T09:11:14.175Z,100782.87
2023-01-28T09:14:16.509Z,100791.44
2023-01-28T09:17:19.652Z,100789.81
2023-01-28T09:20:22.112Z,100798.34
2023-01-28T09:23:27.158Z,100797.59
2023-01-28T09:26:29.971Z,100806.16
2023-01-28T09:29:35.527Z,100807.06
2023-01-28T09:32:37.882Z,100809.66
2023-01-28T09:35:40.797Z,100812.25
2023-01-28T09:38:43.113Z,100811.44
2023-01-28T09:41:56.217Z,100811.38
2023-01-28T09:45:02.154Z,100807.97
2023-01-28T09:48:06.603Z,100806.28
2023-01-28T09:51:22.747Z,100803.75
2023-01-28T09:54:44.272Z,100797.78
2023-01-28T09:57:56.582Z,100796.09
2023-01-28T10:01:02.919Z,100802.13
2023-01-28T10:04:23.178Z,100799.53
2023-01-28T10:07:28.646Z,100795.25
2023-01-28T10:10:45.238Z,100785.81
2023-01-28T10:13:56.550Z,100794.38
2023-01-28T10:17:19.597Z,100798.69
2023-01-28T10:20:26.176Z,100793.59
2023-01-28T10:23:28.838Z,100796.13
2023-01-28T10:26:34.855Z,100797.00
2023-01-28T10:29:39.877Z,100796.13
2023-01-28T10:32:47.105Z,100800.41
2023-01-28T10:35:50.332Z,100800.41
2023-01-28T10:38:52.810Z,100790.94
2023-01-28T10:41:59.065Z,100794.34
2023-01-28T10:45:03.576Z,100795.16
2023-01-28T10:48:16.328Z,100793.31
2023-01-28T10:51:19.970Z,100799.34
2023-01-28T10:54:28.927Z,100792.28
2023-01-28T10:57:33.184Z,100794.69
2023-01-28T11:00:37.320Z,100790.50
2023-01-28T11:03:41.392Z,100787.84
2023-01-28T11:06:51.788Z,100795.66
2023-01-28T11:09:54.181Z,100790.41
2023-01-28T11:12:57.329Z,100795.38
2023-01-28T11:16:06.881Z,100792.00
2023-01-28T11:19:11.671Z,100796.28
2023-01-28T11:22:20.820Z,100786.78
2023-01-28T11:25:34.266Z,100788.66
2023-01-28T11:28:40.739Z,100783.75
2023-01-28T11:31:44.299Z,100776.22
2023-01-28T11:34:50.978Z,100781.28
2023-01-28T11:37:53.647Z,100777.81
2023-01-28T11:40:57.296Z,100782.91
2023-01-28T11:44:05.652Z,100770.88
2023-01-28T11:47:27.616Z,100771.66
2023-01-28T11:50:39.942Z,100777.66
2023-01-28T11:53:53.122Z,100770.91
2023-01-28T11:57:22.557Z,100769.94
2023-01-28T12:00:43.587Z,100764.72
2023-01-28T12:03:51.910Z,100759.41
2023-01-28T12:06:58.393Z,100765.34
2023-01-28T12:10:02.915Z,100766.13
2023-01-28T12:13:20.593Z,100762.50
2023-01-28T12:16:32.241Z,100759.91
2023-01-28T12:19:46.348Z,100767.84
2023-01-28T12:22:49.119Z,100762.72
2023-01-28T12:25:57.364Z,100759.22
2023-01-28T12:29:06.453Z,100760.84
2023-01-28T12:32:16.468Z,100759.22
2023-01-28T12:35:19.093Z,100754.28
2023-01-28T12:38:36.198Z,100753.97
2023-01-28T12:41:44.084Z,100753.88
2023-01-28T12:44:51.827Z,100760.06
2023-01-28T12:48:08.171Z,100763.44
2023-01-28T12:51:14.456Z,100762.66
2023-01-28T12:54:21.736Z,100765.16
2023-01-28T12:57:26.636Z,100763.47
2023-01-28T13:00:32.575Z,100769.72
2023-01-28T13:04:04.493Z,100770.72
2023-01-28T13:07:11.344Z,100774.94
2023-01-28T13:10:17.315Z,100775.00
2023-01-28T13:13:30.574Z,100786.41
2023-01-28T13:16:37.948Z,100783.84
2023-01-28T13:19:41.828Z,100774.28
2023-01-28T13:22:45.285Z,100787.28
2023-01-28T13:25:49.028Z,100782.13
2023-01-28T13:28:52.437Z,100782.94
2023-01-28T13:31:56.763Z,100789.78
2023-01-28T13:35:01.980Z,100794.91
2023-01-28T13:38:16.178Z,100793.25
2023-01-28T13:41:18.723Z,100805.31
2023-01-28T13:44:31.996Z,100796.59
2023-01-28T13:47:35.863Z,100796.50
2023-01-28T13:50:42.937Z,100807.84
2023-01-28T13:53:51.279Z,100812.09
2023-01-28T13:56:59.838Z,100805.28
2023-01-28T14:00:05.592Z,100803.47
2023-01-28T14:03:33.886Z,100819.94
2023-01-28T14:06:36.468Z,100813.97
2023-01-28T14:09:48.356Z,100819.97
2023-01-28T14:13:09.915Z,100813.06
2023-01-28T14:16:12.247Z,100819.16
2023-01-28T14:19:15.138Z,100819.16
2023-01-28T14:22:19.645Z,100826.97
2023-01-28T14:25:29.737Z,100833.00
2023-01-28T14:28:32.056Z,100837.28
2023-01-28T14:31:39.143Z,100834.72
2023-01-28T14:34:42.951Z,100833.03
2023-01-28T14:37:45.688Z,100839.88
2023-01-28T14:40:55.434Z,100840.75
2023-01-28T14:43:58.506Z,100848.47
2023-01-28T14:47:04.099Z,100844.16
2023-01-28T14:50:16.621Z,100849.31
2023-01-28T14:54:25.020Z,100846.75
2023-01-28T14:57:46.256Z,100846.75
2023-01-28T15:00:55.843Z,100849.28
2023-01-28T15:03:58.933Z,100842.44
2023-01-28T15:07:14.971Z,100845.88
2023-01-28T15:10:26.793Z,100853.56
2023-01-28T15:13:32.634Z,100856.94
2023-01-28T15:16:35.388Z,100855.25
2023-01-28T15:19:40.142Z,100867.25
2023-01-28T15:22:43.072Z,100871.50
2023-01-28T15:25:45.507Z,100875.78
2023-01-28T15:28:49.028Z,100876.59
2023-01-28T15:31:51.744Z,100890.25
2023-01-28T15:34:54.753Z,100884.22
2023-01-28T15:37:57.459Z,100891.06
2023-01-28T15:41:01.058Z,100882.47
2023-01-28T15:44:03.997Z,100894.37
2023-01-28T15:47:17.140Z,100895.25
2023-01-28T15:50:25.965Z,100901.25
2023-01-28T15:53:31.611Z,100897.78
2023-01-28T15:56:34.270Z,100902.09
2023-01-28T15:59:37.137Z,100908.03
2023-01-28T16:02:46.666Z,100912.28
2023-01-28T16:06:19.062Z,100915.69
2023-01-28T16:09:28.574Z,100922.50
2023-01-28T16:12:31.325Z,100925.09
2023-01-28T16:15:34.276Z,100932.75
2023-01-28T16:18:40.060Z,100931.84
2023-01-28T16:21:46.040Z,100933.56
2023-01-28T16:24:52.231Z,100934.38
2023-01-28T16:27:55.290Z,100941.19
2023-01-28T16:30:59.118Z,100936.06
2023-01-28T16:34:01.651Z,100942.88
2023-01-28T16:37:09.198Z,100950.59
2023-01-28T16:40:15.935Z,100950.56
2023-01-28T16:43:18.821Z,100953.94
2023-01-28T16:46:21.332Z,100958.22
2023-01-28T16:49:24.865Z,100955.66
2023-01-28T16:52:27.584Z,100952.19
2023-01-28T16:55:30.245Z,100956.44
2023-01-28T16:58:32.923Z,100960.62
2023-01-28T17:01:35.964Z,100953.75
2023-01-28T17:04:38.468Z,100962.28
2023-01-28T17:07:41.738Z,100958.84
2023-01-28T17:10:44.786Z,100957.19
2023-01-28T17:13:47.520Z,100961.47
2023-01-28T17:16:49.961Z,100969.94
2023-01-28T17:19:52.619Z,100973.34
2023-01-28T17:22:55.114Z,100973.38
2023-01-28T17:26:03.459Z,100977.62
2023-01-28T17:29:06.060Z,100974.16
2023-01-28T17:32:08.827Z,100986.16
2023-01-28T17:35:15.001Z,100987.88
2023-01-28T17:38:18.018Z,100990.41
2023-01-28T17:41:20.699Z,100997.28
2023-01-28T17:44:23.438Z,101002.47
2023-01-28T17:47:25.772Z,100994.72
2023-01-28T17:50:28.673Z,101004.94
2023-01-28T17:53:31.115Z,101012.59
2023-01-28T17:56:34.391Z,101010.06
2023-01-28T17:59:37.596Z,101005.75
2023-01-28T18:02:40.583Z,101010.84
2023-01-28T18:05:43.312Z,101013.37
2023-01-28T18:08:46.308Z,101021.19
2023-01-28T18:11:49.482Z,101021.97
2023-01-28T18:14:51.993Z,101029.75
2023-01-28T18:17:54.826Z,101029.66
2023-01-28T18:21:05.456Z,101032.16
2023-01-28T18:24:10.077Z,101032.09
2023-01-28T18:27:12.884Z,101035.53
2023-01-28T18:30:16.440Z,101032.97
2023-01-28T18:33:19.800Z,101037.22
2023-01-28T18:36:22.904Z,101034.69
2023-01-28T18:39:31.339Z,101045.75
2023-01-28T18:42:34.792Z,101043.19
2023-01-28T18:45:41.023Z,101038.03
2023-01-28T18:48:43.910Z,101046.56
2023-01-28T18:51:46.695Z,101048.22
2023-01-28T18:54:49.469Z,101048.28
2023-01-28T18:57:51.961Z,101056.81
2023-01-28T19:00:56.229Z,101044.84
2023-01-28T19:03:59.210Z,101058.38
2023-01-28T19:07:02.220Z,101058.44
2023-01-28T19:10:05.612Z,101056.81
2023-01-28T19:13:09.771Z,101056.00
2023-01-28T19:16:12.484Z,101063.63
2023-01-28T19:19:15.385Z,101068.69
2023-01-28T19:22:19.203Z,101066.25
2023-01-28T19:25:22.098Z,101067.19
2023-01-28T19:28:24.921Z,101074.81
2023-01-28T19:31:28.135Z,101074.75
2023-01-28T19:34:31.511Z,101065.28
2023-01-28T19:37:34.381Z,101073.94
2023-01-28T19:40:40.263Z,101079.94
2023-01-28T19:43:44.388Z,101078.19
2023-01-28T19:46:47.206Z,101085.06
2023-01-28T19:49:49.912Z,101087.69
2023-01-28T19:52:52.486Z,101099.59
2023-01-28T19:55:55.655Z,101094.41
2023-01-28T19:58:58.277Z,101101.16
2023-01-28T20:02:01.180Z,101102.09
2023-01-28T20:05:04.875Z,101101.25
2023-01-28T20:08:07.363Z,101102.09
2023-01-28T20:11:11.871Z,101116.59
2023-01-28T20:14:18.265Z,101106.34
2023-01-28T20:17:21.776Z,101110.53
2023-01-28T20:20:24.277Z,101106.22
2023-01-28T20:23:28.270Z,101112.28
2023-01-28T20:26:32.371Z,101113.03
2023-01-28T20:29:35.114Z,101105.19
2023-01-28T20:32:37.588Z,101120.59
2023-01-28T20:35:40.233Z,101114.63
2023-01-28T20:38:44.403Z,101115.47
2023-01-28T20:41:47.418Z,101117.12
2023-01-28T20:44:51.104Z,101112.06
2023-01-28T20:47:53.815Z,101121.41
2023-01-28T20:50:56.505Z,101127.41
2023-01-28T20:54:00.555Z,101128.37
2023-01-28T20:57:03.035Z,101131.63
2023-01-28T21:00:06.861Z,101129.94
2023-01-28T21:03:09.715Z,101138.47
2023-01-28T21:06:12.766Z,101145.31
2023-01-28T21:09:15.174Z,101147.94
2023-01-28T21:12:18.235Z,101155.50
2023-01-28T21:15:20.858Z,101157.25
2023-01-28T21:18:24.382Z,101147.94
2023-01-28T21:21:28.919Z,101150.41
2023-01-28T21:24:31.715Z,101157.25
2023-01-28T21:27:35.738Z,101161.63
2023-01-28T21:30:40.012Z,101161.56
2023-01-28T21:33:42.652Z,101169.13
2023-01-28T21:36:45.344Z,101171.75
2023-01-28T21:39:49.015Z,101169.94
2023-01-28T21:42:53.291Z,101163.91
2023-01-28T21:45:56.344Z,101173.31
2023-01-28T21:49:00.562Z,101175.03
2023-01-28T21:52:02.916Z,101164.72
2023-01-28T21:55:05.810Z,101172.50
2023-01-28T21:58:28.240Z,101166.44
2023-01-28T22:01:31.113Z,101166.50
2023-01-28T22:04:35.061Z,101165.59
2023-01-28T22:07:37.391Z,101170.59
2023-01-28T22:10:40.790Z,101174.22
2023-01-28T22:13:43.263Z,101173.22
2023-01-28T22:16:46.053Z,101174.03
2023-01-28T22:19:48.572Z,101174.78
2023-01-28T22:22:51.855Z,101173.22
2023-01-28T22:25:54.791Z,101174.06
2023-01-28T22:28:57.507Z,101174.88
2023-01-28T22:32:00.589Z,101174.62
2023-01-28T22:35:04.787Z,101180.66
2023-01-28T22:38:07.507Z,101173.81
2023-01-28T22:41:18.958Z,101169.56
2023-01-28T22:44:21.394Z,101171.12
2023-01-28T22:47:24.058Z,101184.00
2023-01-28T22:50:26.744Z,101185.66
2023-01-28T22:53:29.863Z,101184.97
2023-01-28T22:56:32.399Z,101188.38
2023-01-28T22:59:35.037Z,101189.25
2023-01-28T23:02:38.239Z,101194.25
2023-01-28T23:05:40.963Z,101187.44
2023-01-28T23:08:43.911Z,101188.19
2023-01-28T23:11:46.597Z,101188.16
2023-01-28T23:15:07.645Z,101200.97
2023-01-28T23:18:34.372Z,101200.91
2023-01-28T23:21:55.690Z,101194.81
2023-01-28T23:24:58.784Z,101194.59
2023-01-28T23:28:01.227Z,101204.06
2023-01-28T23:31:04.119Z,101202.22
2023-01-28T23:34:07.417Z,101204.91
2023-01-28T23:37:10.783Z,101213.47
2023-01-28T23:40:13.773Z,101208.22
2023-01-28T23:43:17.420Z,101204.91
2023-01-28T23:46:27.405Z,101197.16
2023-01-28T23:49:39.443Z,101207.25
2023-01-28T23:52:42.083Z,101202.22
2023-01-28T23:55:44.780Z,101198.03
2023-01-28T23:58:47.197Z,101195.25
